Time;durP1;ratioP1;P1;durP2;ratioP2;P2;SDS_P1;SDS_P2;PMS_P1;PMS_P2;Temp;Humidity;BMP_temperature;BMP_pressure;BME280_temperature;BME280_humidity;BME280_pressure;Samples;Min_cycle;Max_cycle;Signal;HPM_P1;HPM_P2
2022/12/06 00:00:40;;;;;;;8.63;5.38;;;;;;;6.08;97.07;101984.03;5034698;28;20075;-89
2022/12/06 00:03:06;;;;;;;7.80;5.30;;;;;;;6.06;96.94;101977.84;5035057;28;20033;-88
2022/12/06 00:05:32;;;;;;;8.85;5.78;;;;;;;6.08;97.29;101973.56;5000852;28;20503;-88
2022/12/06 00:07:57;;;;;;;7.65;5.70;;;;;;;6.08;96.96;101989.28;5016745;28;20041;-88
2022/12/06 00:10:22;;;;;;;7.15;5.30;;;;;;;5.98;97.08;101966.97;5035023;28;20044;-88
2022/12/06 00:12:48;;;;;;;7.38;5.82;;;;;;;6.01;96.98;101969.75;5000760;28;20111;-88
2022/12/06 00:15:13;;;;;;;8.73;5.97;;;;;;;6.05;97.01;101981.28;5017058;28;20033;-88
2022/12/06 00:17:39;;;;;;;8.40;5.85;;;;;;;6.06;97.46;101980.47;5016751;28;20030;-89
2022/12/06 00:20:05;;;;;;;8.90;5.65;;;;;;;6.03;97.55;101970.72;5034547;28;20112;-89
2022/12/06 00:22:31;;;;;;;8.00;5.47;;;;;;;5.99;97.35;101966.16;5034596;28;20116;-89
2022/12/06 00:24:56;;;;;;;7.35;5.43;;;;;;;6.03;97.73;101974.22;5034361;28;20470;-89
2022/12/06 00:27:22;;;;;;;7.45;5.45;;;;;;;6.10;97.65;101979.78;5033859;28;20021;-89
2022/12/06 00:29:47;;;;;;;8.18;5.68;;;;;;;6.09;97.01;101976.25;5016573;28;20509;-88
2022/12/06 00:32:13;;;;;;;8.50;5.80;;;;;;;6.11;97.58;101971.06;5016756;28;20064;-88
2022/12/06 00:34:38;;;;;;;9.07;5.88;;;;;;;6.00;97.30;101953.13;5016063;28;20053;-89
2022/12/06 00:37:03;;;;;;;7.95;5.50;;;;;;;6.01;97.50;101948.78;4983468;28;20064;-88
2022/12/06 00:39:29;;;;;;;9.02;6.00;;;;;;;6.12;97.17;101971.13;5033887;28;20025;-89
2022/12/06 00:41:55;;;;;;;9.55;5.63;;;;;;;6.06;97.46;101968.25;4983725;28;20030;-88
2022/12/06 00:44:20;;;;;;;7.95;5.60;;;;;;;6.15;97.22;101971.28;5033739;28;20037;-88
2022/12/06 00:46:46;;;;;;;7.97;5.80;;;;;;;6.15;96.74;101967.78;5033200;28;20034;-87
2022/12/06 00:49:12;;;;;;;14.60;5.88;;;;;;;6.00;96.66;101950.50;5015658;28;20071;-88
2022/12/06 00:51:38;;;;;;;7.47;5.70;;;;;;;6.07;97.25;101954.28;5015609;28;20026;-88
2022/12/06 00:54:04;;;;;;;8.23;5.68;;;;;;;6.01;96.72;101949.66;5015819;28;20191;-88
2022/12/06 00:56:31;;;;;;;9.82;6.30;;;;;;;6.14;96.15;101971.22;5015563;28;20026;-88
2022/12/06 00:58:57;;;;;;;8.25;5.90;;;;;;;6.05;96.64;101955.06;5035433;28;20049;-88
2022/12/06 01:01:28;;;;;;;8.55;5.88;;;;;;;6.09;96.96;101963.16;5035241;28;20060;-88
2022/12/06 01:04:00;;;;;;;10.40;6.07;;;;;;;6.15;96.75;101970.41;5017511;28;20063;-88
2022/12/06 01:06:28;;;;;;;8.13;5.70;;;;;;;6.15;96.67;101979.16;5035201;28;20112;-88
2022/12/06 01:08:56;;;;;;;7.95;5.90;;;;;;;6.15;96.88;101973.91;5017369;28;20057;-88
2022/12/06 01:11:22;;;;;;;7.78;6.05;;;;;;;6.05;96.71;101960.31;5033534;28;20032;-88
2022/12/06 01:13:48;;;;;;;8.18;5.70;;;;;;;6.12;96.55;101963.25;4999709;28;20044;-88
2022/12/06 01:16:16;;;;;;;7.47;6.22;;;;;;;6.16;96.62;101978.31;5033635;28;20029;-88
2022/12/06 01:18:42;;;;;;;9.80;6.13;;;;;;;6.00;96.11;101953.13;5033784;28;20036;-88
2022/12/06 01:21:14;;;;;;;7.88;6.07;;;;;;;5.90;96.66;101940.34;5033975;28;20490;-88
2022/12/06 01:23:39;;;;;;;13.93;6.30;;;;;;;6.12;96.61;101979.00;5016410;28;20022;-88
2022/12/06 01:26:06;;;;;;;7.57;5.88;;;;;;;6.09;96.82;101978.00;5033933;28;20035;-88
2022/12/06 01:28:32;;;;;;;8.57;6.00;;;;;;;6.03;96.70;101965.47;5016503;28;20033;-89
2022/12/06 01:30:57;;;;;;;8.23;6.28;;;;;;;6.03;97.57;101968.97;5015771;28;20037;-88
2022/12/06 01:33:23;;;;;;;7.30;5.80;;;;;;;6.03;97.39;101973.34;4999995;28;20080;-88
2022/12/06 01:35:48;;;;;;;8.65;5.93;;;;;;;5.94;97.67;101960.69;5015778;28;20409;-88
2022/12/06 01:38:14;;;;;;;7.20;5.60;;;;;;;5.68;97.95;101916.56;5033447;28;20054;-88
2022/12/06 01:40:45;;;;;;;8.43;5.70;;;;;;;6.02;97.73;101984.66;5016097;28;20033;-88
2022/12/06 01:43:42;;;;;;;8.63;5.72;;;;;;;6.03;97.97;101983.84;5033409;28;20029;-88
2022/12/06 01:46:29;;;;;;;7.70;5.43;;;;;;;5.90;97.39;101963.94;5015567;28;20026;-88
2022/12/06 01:49:05;;;;;;;8.30;5.30;;;;;;;5.75;97.91;101929.16;5018808;28;20029;-88
2022/12/06 01:51:40;;;;;;;7.53;5.20;;;;;;;5.88;98.11;101947.25;5019486;28;20093;-88
2022/12/06 01:54:11;;;;;;;5.78;4.72;;;;;;;6.05;97.98;101970.81;5004447;28;20033;-88
2022/12/06 01:56:37;;;;;;;7.25;5.20;;;;;;;5.95;98.30;101948.47;5037100;28;20037;-88
2022/12/06 01:59:05;;;;;;;7.60;4.85;;;;;;;6.07;97.60;101969.13;5037156;28;20068;-89
2022/12/06 02:01:31;;;;;;;7.80;5.22;;;;;;;6.03;97.83;101961.09;5019422;28;20131;-89
2022/12/06 02:03:58;;;;;;;9.98;5.35;;;;;;;6.06;97.86;101964.72;5019016;28;20041;-89
2022/12/06 02:06:23;;;;;;;6.80;5.25;;;;;;;5.91;97.74;101938.63;5019063;28;20029;-89
2022/12/06 02:08:52;;;;;;;8.52;5.65;;;;;;;5.90;97.59;101942.06;5037045;28;20033;-89
2022/12/06 02:11:17;;;;;;;8.25;5.35;;;;;;;6.01;97.36;101967.13;5019160;28;20035;-89
2022/12/06 02:13:43;;;;;;;9.00;5.50;;;;;;;5.86;97.61;101958.50;5019144;28;20470;-88
2022/12/06 02:16:09;;;;;;;8.00;5.93;;;;;;;5.90;97.74;101971.81;5036805;28;20029;-88
2022/12/06 02:18:34;;;;;;;8.98;5.68;;;;;;;5.92;97.70;101969.31;5037267;28;20080;-88
2022/12/06 02:21:19;;;;;;;7.47;5.20;;;;;;;5.91;98.45;101973.66;5018987;28;20485;-88
2022/12/06 02:24:00;;;;;;;7.75;5.65;;;;;;;5.95;98.08;101967.75;5036860;28;20065;-89
2022/12/06 02:26:31;;;;;;;7.72;5.32;;;;;;;5.96;97.98;101966.91;5018888;28;20029;-88
2022/12/06 02:29:05;;;;;;;9.70;5.25;;;;;;;6.00;97.69;101966.25;5036486;28;20029;-88
2022/12/06 02:32:09;;;;;;;7.53;5.40;;;;;;;5.89;97.48;101943.78;5036488;28;20045;-88
2022/12/06 02:34:59;;;;;;;8.32;5.00;;;;;;;6.04;97.51;101972.53;4959007;28;20106;-88
2022/12/06 02:37:36;;;;;;;7.95;5.13;;;;;;;6.02;97.44;101959.31;5033778;28;20059;-88
2022/12/06 02:40:13;;;;;;;7.10;4.72;;;;;;;6.05;97.34;101958.59;5036580;28;20559;-88
2022/12/06 02:42:56;;;;;;;9.80;5.18;;;;;;;6.00;96.97;101955.75;5036199;28;20486;-89
2022/12/06 02:45:30;;;;;;;7.70;5.13;;;;;;;5.96;96.91;101958.16;5036652;28;20033;-88
2022/12/06 02:48:01;;;;;;;12.18;5.32;;;;;;;5.95;97.17;101956.31;5036095;28;20152;-88
2022/12/06 02:50:36;;;;;;;8.57;5.10;;;;;;;5.86;97.05;101942.75;5018665;28;20109;-88
2022/12/06 02:53:04;;;;;;;8.63;5.45;;;;;;;5.90;96.93;101949.94;5018566;28;20033;-88
2022/12/06 02:55:31;;;;;;;7.63;5.20;;;;;;;5.92;97.67;101953.59;5017330;28;20088;-88
2022/12/06 02:57:56;;;;;;;8.25;5.38;;;;;;;5.85;97.78;101931.38;5035042;28;20519;-88
2022/12/06 03:00:28;;;;;;;7.72;5.00;;;;;;;5.94;97.19;101947.56;4984956;28;20132;-88
2022/12/06 03:03:03;;;;;;;8.55;5.50;;;;;;;5.69;97.47;101900.88;5035291;28;20473;-88
2022/12/06 03:05:39;;;;;;;6.82;4.70;;;;;;;5.93;97.42;101935.28;5017510;28;20057;-88
2022/12/06 03:08:17;;;;;;;8.65;4.97;;;;;;;5.90;97.24;101942.06;5035256;28;20524;-88
2022/12/06 03:10:52;;;;;;;7.47;5.43;;;;;;;5.85;97.33;101930.47;5035132;28;20040;-87
2022/12/06 03:13:40;;;;;;;7.00;5.07;;;;;;;5.91;97.75;101951.72;5035138;28;20029;-87
2022/12/06 03:16:24;;;;;;;8.20;5.43;;;;;;;5.85;97.27;101949.72;5006316;28;20041;-88
2022/12/06 03:18:58;;;;;;;10.68;5.40;;;;;;;5.88;98.15;101952.50;5034774;28;20104;-88
2022/12/06 03:21:30;;;;;;;9.77;5.38;;;;;;;5.86;97.11;101948.00;5035001;28;20067;-88
2022/12/06 03:23:57;;;;;;;8.65;5.10;;;;;;;5.89;97.65;101953.41;5034948;28;20047;-88
2022/12/06 03:26:26;;;;;;;7.82;5.00;;;;;;;5.92;97.43;101953.59;5017026;28;20079;-88
2022/12/06 03:28:55;;;;;;;8.45;5.38;;;;;;;5.85;97.26;101935.72;5035907;28;20112;-88
2022/12/06 03:31:23;;;;;;;10.35;6.38;;;;;;;5.70;96.94;101917.53;5035391;28;20029;-88
2022/12/06 03:33:57;;;;;;;10.00;5.75;;;;;;;5.84;97.14;101953.19;5034154;28;20060;-88
2022/12/06 03:36:25;;;;;;;9.40;5.35;;;;;;;5.88;97.46;101956.84;5034682;28;20037;-88
2022/12/06 03:38:59;;;;;;;9.60;5.45;;;;;;;5.86;97.49;101958.50;5016485;28;20086;-88
2022/12/06 03:41:28;;;;;;;8.48;5.50;;;;;;;5.85;97.37;101962.84;5017078;28;20120;-88
2022/12/06 03:43:54;;;;;;;12.05;5.80;;;;;;;5.73;97.27;101936.03;5016698;28;20033;-88
2022/12/06 03:46:27;;;;;;;14.75;5.80;;;;;;;5.71;97.49;101932.44;5016821;28;20036;-88
2022/12/06 03:49:03;;;;;;;8.57;5.00;;;;;;;5.80;97.82;101939.84;5034339;28;20040;-88
2022/12/06 03:51:32;;;;;;;12.95;5.90;;;;;;;5.77;97.90;101943.22;5016598;28;20128;-88
2022/12/06 03:54:00;;;;;;;11.75;6.00;;;;;;;5.88;97.08;101955.13;5016439;28;20107;-88
2022/12/06 03:56:26;;;;;;;10.48;5.88;;;;;;;5.85;97.83;101936.59;5034186;28;20026;-88
2022/12/06 03:58:52;;;;;;;9.52;6.00;;;;;;;5.90;97.87;101948.22;5016551;28;20036;-88
2022/12/06 04:01:17;;;;;;;12.15;5.85;;;;;;;5.93;97.81;101947.50;5000005;28;20482;-88
2022/12/06 04:03:43;;;;;;;11.25;6.70;;;;;;;5.81;97.27;101933.78;5034131;28;20025;-88
2022/12/06 04:06:09;;;;;;;9.30;6.03;;;;;;;5.82;97.69;101933.84;5033954;28;20033;-87
2022/12/06 04:08:35;;;;;;;9.48;6.47;;;;;;;5.94;97.31;101960.69;5016293;28;20040;-87
2022/12/06 04:11:01;;;;;;;12.27;7.13;;;;;;;5.94;97.70;101950.19;5015431;28;20035;-87
2022/12/06 04:13:27;;;;;;;13.30;6.70;;;;;;;5.92;97.05;101945.72;5016290;28;20045;-87
2022/12/06 04:15:58;;;;;;;16.77;6.90;;;;;;;5.90;97.18;101942.97;5033865;28;20466;-87
2022/12/06 04:18:24;;;;;;;11.02;6.15;;;;;;;5.91;97.81;101933.38;5015708;28;20125;-88
2022/12/06 04:23:41;;;;;;;10.38;5.95;;;;;;;5.93;97.61;101953.66;5033892;28;20175;-88
2022/12/06 04:26:10;;;;;;;13.00;6.13;;;;;;;5.89;97.01;101946.41;5033706;28;20040;-88
2022/12/06 04:39:33;;;;;;;15.20;6.68;;;;;;;5.84;98.06;101953.19;5033470;28;20049;-87
2022/12/06 04:44:43;;;;;;;14.90;6.07;;;;;;;5.76;98.48;101931.81;5033563;28;20103;-87
2022/12/06 04:47:09;;;;;;;12.60;5.75;;;;;;;5.89;98.55;101950.78;5033007;28;20064;-88
2022/12/06 04:49:35;;;;;;;9.80;5.55;;;;;;;5.84;97.92;101947.94;5015690;28;20034;-88
2022/12/06 04:52:02;;;;;;;13.35;5.38;;;;;;;5.89;97.50;101958.63;5015784;28;20055;-87
2022/12/06 04:54:28;;;;;;;11.98;5.55;;;;;;;5.86;97.89;101942.75;5015558;28;20375;-88
2022/12/06 04:56:55;;;;;;;10.35;5.95;;;;;;;5.82;97.99;101946.94;5033283;28;20037;-88
2022/12/06 04:59:21;;;;;;;12.82;5.38;;;;;;;5.80;98.35;101940.75;5015660;28;20025;-87
2022/12/06 05:01:46;;;;;;;12.85;5.82;;;;;;;5.73;98.31;101936.03;4999204;28;20034;-87
2022/12/06 05:04:12;;;;;;;10.52;5.55;;;;;;;5.77;98.22;101941.47;5015558;28;20057;-88
2022/12/06 05:06:37;;;;;;;15.82;5.85;;;;;;;5.78;98.30;101940.69;4999118;28;20466;-88
2022/12/06 05:09:03;;;;;;;13.27;5.50;;;;;;;5.74;98.13;101928.25;5015268;28;20041;-87
2022/12/06 05:11:28;;;;;;;13.48;5.78;;;;;;;5.84;98.09;101952.28;5015502;28;20132;-86
2022/12/06 05:13:53;;;;;;;12.13;5.32;;;;;;;5.84;98.66;101955.81;5032835;28;20040;-88
2022/12/06 05:16:19;;;;;;;13.10;5.32;;;;;;;5.81;97.92;101937.28;5033412;28;20038;-88
2022/12/06 05:18:44;;;;;;;13.75;5.50;;;;;;;5.75;97.93;101935.28;4998881;28;20091;-88
2022/12/06 05:21:14;;;;;;;8.70;4.50;;;;;;;5.84;98.04;101947.03;5015917;28;20421;-88
2022/12/06 05:23:39;;;;;;;10.15;5.38;;;;;;;5.81;98.18;101945.16;5037299;28;20061;-88
2022/12/06 05:26:09;;;;;;;9.00;5.22;;;;;;;5.67;97.92;101918.28;5019318;28;20034;-88
2022/12/06 05:28:34;;;;;;;11.35;5.55;;;;;;;5.73;97.98;101929.03;5037359;28;20030;-88
2022/12/06 05:31:00;;;;;;;12.05;5.13;;;;;;;5.79;98.01;101938.97;5037220;28;20041;-88
2022/12/06 05:33:26;;;;;;;12.88;5.60;;;;;;;5.81;97.79;101947.78;5002760;28;20462;-88
2022/12/06 05:35:52;;;;;;;11.45;5.28;;;;;;;5.55;97.62;101893.19;5018873;28;20485;-88
2022/12/06 05:38:18;;;;;;;9.65;4.95;;;;;;;5.68;97.64;101920.06;5018924;28;20033;-88
2022/12/06 05:40:44;;;;;;;14.77;5.47;;;;;;;5.80;97.92;101940.75;5002324;28;20120;-88
2022/12/06 05:43:10;;;;;;;10.55;5.40;;;;;;;5.78;97.86;101935.44;5036762;28;20454;-88
2022/12/06 05:45:36;;;;;;;11.93;4.88;;;;;;;5.77;97.44;101931.00;5036402;28;20072;-88
2022/12/06 05:48:02;;;;;;;11.35;5.28;;;;;;;5.69;97.51;101928.84;5018776;28;20136;-88
2022/12/06 05:50:28;;;;;;;8.90;5.03;;;;;;;5.75;97.42;101940.53;5018756;28;20033;-88
2022/12/06 05:52:55;;;;;;;13.63;5.32;;;;;;;5.67;97.87;101926.16;5002255;28;20144;-88
2022/12/06 05:55:20;;;;;;;11.45;5.40;;;;;;;5.81;97.16;101954.75;5018817;28;20037;-88
2022/12/06 05:57:46;;;;;;;11.13;5.15;;;;;;;5.72;97.64;101934.22;5036731;28;20513;-88
2022/12/06 06:00:12;;;;;;;9.52;5.20;;;;;;;5.81;96.94;101947.78;5002717;28;20037;-88
2022/12/06 06:02:37;;;;;;;11.95;4.97;;;;;;;5.84;96.85;101950.56;5018835;28;20390;-87
2022/12/06 06:05:03;;;;;;;8.30;5.00;;;;;;;5.85;97.08;101947.09;5036760;28;20036;-88
2022/12/06 06:07:28;;;;;;;11.38;4.80;;;;;;;5.79;96.91;101941.56;5018632;28;20044;-86
2022/12/06 06:09:54;;;;;;;11.40;4.45;;;;;;;5.78;96.54;101945.00;5018221;28;20489;-87
2022/12/06 06:12:19;;;;;;;8.98;4.55;;;;;;;5.76;96.53;101949.28;5036351;28;20382;-88
2022/12/06 06:14:45;;;;;;;9.43;4.35;;;;;;;5.75;96.97;101947.50;5036250;28;20031;-89
2022/12/06 06:17:10;;;;;;;11.95;4.57;;;;;;;5.63;97.06;101928.56;5018565;28;20029;-89
2022/12/06 06:19:38;;;;;;;12.00;4.80;;;;;;;5.67;96.77;101939.25;5035920;28;20028;-89
2022/12/06 06:22:06;;;;;;;10.48;4.80;;;;;;;5.66;97.22;101941.81;5019178;28;20037;-89
2022/12/06 06:24:39;;;;;;;9.10;4.03;;;;;;;5.66;97.07;101941.81;5035984;28;20029;-89
2022/12/06 06:27:05;;;;;;;12.38;4.30;;;;;;;5.49;96.72;101918.31;5018261;28;20068;-90
2022/12/06 06:29:33;;;;;;;10.10;4.03;;;;;;;5.69;97.00;101958.56;5018307;28;20037;-88
2022/12/06 06:31:59;;;;;;;9.38;4.28;;;;;;;5.67;96.89;101944.50;5035895;28;20037;-87
2022/12/06 06:34:24;;;;;;;11.07;4.70;;;;;;;5.72;96.20;101947.34;5017394;28;20053;-88
2022/12/06 06:36:50;;;;;;;8.15;4.30;;;;;;;5.73;96.61;101943.88;5001729;28;20424;-88
2022/12/06 06:39:17;;;;;;;14.50;4.80;;;;;;;5.78;96.28;101951.19;5018084;28;20124;-88
2022/12/06 06:41:43;;;;;;;9.50;4.55;;;;;;;5.71;96.68;101943.81;5017848;28;20065;-88
2022/12/06 06:44:08;;;;;;;9.45;4.35;;;;;;;5.71;96.38;101948.19;5001621;28;20037;-88
2022/12/06 06:46:34;;;;;;;6.78;3.85;;;;;;;5.68;96.03;101948.91;5017917;28;20492;-88
2022/12/06 06:48:59;;;;;;;9.55;4.15;;;;;;;5.56;96.39;101932.59;5001054;28;20035;-88
2022/12/06 06:51:25;;;;;;;9.23;4.45;;;;;;;5.67;96.21;101947.13;5001189;28;20083;-88
2022/12/06 06:53:50;;;;;;;11.65;4.45;;;;;;;5.65;95.98;101937.38;5001194;28;20060;-88
2022/12/06 06:56:16;;;;;;;11.65;3.92;;;;;;;5.62;95.47;101929.38;5000986;28;20029;-88
2022/12/06 06:58:41;;;;;;;10.77;4.70;;;;;;;5.67;95.34;101948.84;5035229;28;20029;-89
2022/12/06 07:01:08;;;;;;;9.57;4.30;;;;;;;5.65;95.55;101945.25;5001369;28;20030;-89
2022/12/06 07:03:34;;;;;;;7.97;4.10;;;;;;;5.50;96.05;101922.72;5035280;28;20030;-89
2022/12/06 07:06:06;;;;;;;7.80;3.85;;;;;;;5.57;95.87;101931.78;5001128;28;20045;-89
2022/12/06 07:08:32;;;;;;;7.90;4.10;;;;;;;5.47;95.75;101913.78;5035307;28;20095;-89
2022/12/06 07:11:00;;;;;;;8.65;4.18;;;;;;;5.61;95.68;101943.28;5017233;28;20092;-89
2022/12/06 07:13:27;;;;;;;6.28;3.95;;;;;;;5.55;96.00;101938.66;5001246;28;20199;-89
2022/12/06 07:15:53;;;;;;;7.93;4.30;;;;;;;5.61;94.85;101941.59;5017378;28;20036;-89
2022/12/06 07:18:19;;;;;;;7.45;4.03;;;;;;;5.54;94.58;101939.50;5000615;28;20038;-89
2022/12/06 07:20:46;;;;;;;8.38;4.30;;;;;;;5.40;94.58;101925.72;5034991;28;20029;-89
2022/12/06 07:23:12;;;;;;;8.05;3.85;;;;;;;5.32;94.50;101916.59;5034746;28;20033;-89
2022/12/06 07:25:38;;;;;;;9.80;4.05;;;;;;;5.47;94.80;101948.78;5034651;28;20490;-89
2022/12/06 07:28:04;;;;;;;8.55;4.15;;;;;;;5.43;95.15;101946.81;5034710;28;20056;-89
2022/12/06 07:30:29;;;;;;;6.47;4.20;;;;;;;5.40;95.06;101951.94;5016793;28;20068;-89
2022/12/06 07:32:55;;;;;;;12.18;4.22;;;;;;;5.27;95.29;101925.94;5000650;28;20037;-89
2022/12/06 07:35:21;;;;;;;9.48;4.30;;;;;;;5.47;95.67;101955.72;5016149;28;20053;-89
2022/12/06 07:37:47;;;;;;;9.07;4.38;;;;;;;5.44;95.91;101942.50;5004765;28;20106;-89
2022/12/06 07:40:14;;;;;;;9.07;4.20;;;;;;;5.27;95.86;101920.72;5017939;28;20048;-89
2022/12/06 07:45:23;;;;;;;7.10;4.30;;;;;;;5.43;95.93;101951.16;5033744;28;20137;-89
2022/12/06 07:47:49;;;;;;;8.20;4.55;;;;;;;5.47;96.29;101954.00;5000151;28;20441;-89
2022/12/06 07:50:21;;;;;;;8.63;4.15;;;;;;;5.50;96.52;101953.28;5035553;28;20041;-89
2022/12/06 07:52:48;;;;;;;8.52;3.90;;;;;;;5.36;95.76;101929.00;5033758;28;20398;-89
2022/12/06 07:55:17;;;;;;;6.97;3.75;;;;;;;5.41;95.41;101948.47;5034505;28;20116;-89
2022/12/06 07:57:43;;;;;;;9.93;3.60;;;;;;;5.40;95.88;101951.94;5017168;28;20442;-89
2022/12/06 08:00:10;;;;;;;11.27;4.10;;;;;;;5.42;95.87;101959.84;5017163;28;20045;-89
2022/12/06 08:02:35;;;;;;;8.68;3.63;;;;;;;5.50;95.96;101974.25;5015822;28;20044;-89
2022/12/06 08:05:01;;;;;;;11.02;3.75;;;;;;;5.48;96.21;101968.00;5016035;28;20037;-89
2022/12/06 08:07:26;;;;;;;7.00;3.88;;;;;;;5.49;96.01;101968.09;5015961;28;20236;-89
2022/12/06 08:09:52;;;;;;;7.75;3.45;;;;;;;5.48;96.22;101968.00;5015974;28;20040;-88
2022/12/06 08:12:19;;;;;;;7.65;3.33;;;;;;;5.56;95.91;101976.25;5033733;28;20032;-88
2022/12/06 08:14:45;;;;;;;6.63;3.65;;;;;;;5.53;95.87;101969.16;5015871;28;20033;-88
2022/12/06 08:17:10;;;;;;;6.43;3.58;;;;;;;5.45;95.59;101952.16;5016701;28;20120;-89
2022/12/06 08:19:36;;;;;;;8.30;3.70;;;;;;;5.53;95.96;101963.91;4999206;28;20474;-89
2022/12/06 08:22:01;;;;;;;7.63;3.90;;;;;;;5.65;96.03;101974.09;5033376;28;20474;-89
2022/12/06 08:24:27;;;;;;;8.07;3.47;;;;;;;5.69;95.81;101970.78;5016440;28;20080;-89
2022/12/06 08:26:52;;;;;;;8.70;3.35;;;;;;;5.61;95.11;101961.66;5016255;28;20103;-89
2022/12/06 08:29:18;;;;;;;7.00;3.67;;;;;;;5.71;95.85;101984.88;5015458;28;20409;-89
2022/12/06 08:31:44;;;;;;;7.72;3.78;;;;;;;5.60;95.30;101952.88;5015503;28;20034;-89
2022/12/06 08:34:11;;;;;;;7.85;3.80;;;;;;;5.53;95.47;101933.34;5034571;28;20067;-89
2022/12/06 08:36:38;;;;;;;7.07;3.92;;;;;;;5.72;94.90;101955.22;5033417;28;20029;-89
2022/12/06 08:39:04;;;;;;;6.10;3.30;;;;;;;5.85;94.88;101965.47;5015309;28;20116;-89
2022/12/06 08:44:15;;;;;;;7.00;3.17;;;;;;;5.94;94.67;101968.56;5033095;28;20393;-88
2022/12/06 08:46:40;;;;;;;6.22;3.50;;;;;;;5.93;94.19;101963.25;5015325;28;20029;-89
2022/12/06 08:49:06;;;;;;;9.35;3.30;;;;;;;5.93;93.44;101969.38;5016016;28;20037;-88
2022/12/06 08:51:33;;;;;;;6.53;3.40;;;;;;;6.06;93.79;101976.13;5033746;28;20316;-89
2022/12/06 08:53:58;;;;;;;8.43;4.13;;;;;;;6.03;93.85;101981.22;5033383;28;20040;-88
2022/12/06 08:56:25;;;;;;;7.82;4.00;;;;;;;6.03;92.95;101984.72;4999074;28;20041;-89
2022/12/06 08:58:52;;;;;;;9.00;4.10;;;;;;;6.09;92.76;101992.00;5032881;28;20061;-88
2022/12/06 09:01:23;;;;;;;8.65;4.10;;;;;;;5.98;93.03;101967.88;5033332;28;20104;-89
2022/12/06 09:03:52;;;;;;;7.38;4.30;;;;;;;6.12;92.50;101989.50;5015923;28;20030;-88
2022/12/06 09:06:19;;;;;;;7.90;4.40;;;;;;;6.19;92.58;101988.97;5032797;28;20144;-88
2022/12/06 09:08:45;;;;;;;9.35;4.63;;;;;;;6.31;94.22;101978.16;5014983;28;20033;-89
2022/12/06 09:11:13;;;;;;;12.70;4.88;;;;;;;6.55;94.02;101986.25;5015086;28;20034;-89
2022/12/06 09:13:39;;;;;;;9.55;4.88;;;;;;;6.59;91.63;101995.16;5032670;28;20121;-88
2022/12/06 09:16:10;;;;;;;10.18;5.15;;;;;;;6.46;91.36;101967.44;5014898;28;20065;-89
2022/12/06 09:18:36;;;;;;;11.20;6.22;;;;;;;6.60;90.71;101992.63;5015137;28;20045;-89
2022/12/06 09:21:06;;;;;;;11.20;5.63;;;;;;;6.59;90.42;101995.16;5032441;28;20033;-89
2022/12/06 09:23:33;;;;;;;10.05;5.35;;;;;;;6.51;90.30;101982.59;5014864;28;20037;-89
2022/12/06 09:25:58;;;;;;;10.23;5.07;;;;;;;6.47;89.94;101985.91;5014884;28;20057;-88
2022/12/06 09:28:23;;;;;;;10.68;5.40;;;;;;;6.65;91.28;101998.09;4998297;28;20065;-88
2022/12/06 09:30:49;;;;;;;11.75;5.60;;;;;;;7.18;92.88;101987.28;5014931;28;20037;-88
2022/12/06 09:33:14;;;;;;;9.10;6.07;;;;;;;8.17;92.19;101995.72;5015724;28;20033;-88
2022/12/06 09:35:40;;;;;;;13.40;6.50;;;;;;;8.98;88.13;101977.69;4998221;28;20064;-89
2022/12/06 09:38:05;;;;;;;10.18;6.07;;;;;;;9.78;84.58;101989.19;5014896;28;20446;-89
2022/12/06 09:40:37;;;;;;;12.18;6.28;;;;;;;10.29;80.97;101982.91;5032471;28;20029;-89
2022/12/06 09:43:05;;;;;;;7.88;5.28;;;;;;;10.63;78.55;101995.34;5032846;28;20092;-88
2022/12/06 09:45:33;;;;;;;9.68;6.10;;;;;;;10.67;77.71;101999.88;5032564;28;20026;-88
2022/12/06 09:48:08;;;;;;;9.88;6.30;;;;;;;10.71;77.93;101998.22;5032208;28;20034;-88
2022/12/06 09:51:02;;;;;;;7.03;4.88;;;;;;;10.81;79.52;101988.78;5032662;28;20108;-88
2022/12/06 09:53:48;;;;;;;8.00;4.90;;;;;;;10.96;78.66;101994.50;4996830;28;20041;-88
2022/12/06 09:56:41;;;;;;;8.60;4.55;;;;;;;11.05;76.72;101992.13;5018945;28;20037;-89
2022/12/06 09:59:24;;;;;;;8.30;4.00;;;;;;;11.13;75.32;101989.66;5033712;28;20032;-88
2022/12/06 10:01:55;;;;;;;;;;;;;;;11.26;80.99;101991.78;5016421;28;20060;-88
2022/12/06 10:04:58;;;;;;;6.57;3.70;;;;;;;11.52;76.17;101989.84;5015566;28;19931;-89
2022/12/06 10:07:23;;;;;;;7.05;3.50;;;;;;;11.58;72.75;101986.44;5014754;28;20092;-89
2022/12/06 10:10:13;;;;;;;6.55;3.50;;;;;;;11.84;75.18;101984.44;5035237;28;20041;-88
2022/12/06 10:13:16;;;;;;;5.90;3.35;;;;;;;12.02;73.06;101977.81;5036604;28;20044;-89
2022/12/06 10:15:56;;;;;;;6.43;3.42;;;;;;;12.21;72.35;101963.25;5036445;28;20026;-89
2022/12/06 10:18:44;;;;;;;6.47;3.40;;;;;;;12.37;69.30;101955.59;5017881;28;20052;-88
2022/12/06 10:21:28;;;;;;;6.55;3.58;;;;;;;12.47;70.61;101977.06;5034859;28;20047;-88
2022/12/06 10:24:38;;;;;;;7.53;3.17;;;;;;;12.60;71.19;101972.91;5018209;28;20053;-88
2022/12/06 10:27:17;;;;;;;5.55;2.95;;;;;;;12.66;69.43;101956.22;5036374;28;20461;-88
2022/12/06 10:30:03;;;;;;;6.45;2.95;;;;;;;12.79;70.31;101953.81;5017969;28;20350;-88
2022/12/06 10:32:47;;;;;;;10.95;3.28;;;;;;;13.18;68.64;101979.31;5037995;28;20026;-90
2022/12/06 10:35:46;;;;;;;3.92;2.78;;;;;;;13.15;67.01;101970.44;5017179;28;20379;-88
2022/12/06 10:38:21;;;;;;;8.63;3.00;;;;;;;13.06;64.64;101968.50;5017736;28;20079;-88
2022/12/06 10:41:05;;;;;;;5.43;3.28;;;;;;;13.12;66.38;101967.72;5017568;28;20315;-88
2022/12/06 10:43:54;;;;;;;5.88;3.22;;;;;;;13.45;66.76;101964.78;5017564;28;20112;-88
2022/12/06 10:49:19;;;;;;;6.22;3.70;;;;;;;13.56;63.88;101955.22;5035017;28;20048;-88
2022/12/06 10:51:52;;;;;;;5.68;3.25;;;;;;;13.62;63.72;101965.03;5017397;28;20033;-88
2022/12/06 10:54:39;;;;;;;4.78;3.05;;;;;;;13.58;62.55;101966.78;5017766;28;20076;-88
2022/12/06 10:57:12;;;;;;;7.45;2.72;;;;;;;13.90;61.58;101971.69;5017402;28;20053;-88
2022/12/06 10:59:55;;;;;;;6.70;2.90;;;;;;;13.92;61.25;101952.25;5017928;28;20084;-88
2022/12/06 11:02:29;;;;;;;4.93;2.72;;;;;;;13.92;60.28;101946.06;5035243;28;20057;-88
2022/12/06 11:05:00;;;;;;;7.25;3.08;;;;;;;14.18;60.40;101951.75;5035220;28;20437;-87
2022/12/06 11:07:34;;;;;;;5.68;3.05;;;;;;;14.39;61.05;101960.00;5017126;28;20493;-87
2022/12/06 11:10:01;;;;;;;4.35;2.90;;;;;;;14.75;58.18;101958.69;5016897;28;20357;-88
2022/12/06 11:12:33;;;;;;;4.13;2.60;;;;;;;14.66;58.27;101966.56;5017464;28;20092;-87
2022/12/06 11:15:16;;;;;;;5.72;2.70;;;;;;;14.73;61.75;101960.41;5034474;28;20434;-87
2022/12/06 11:17:50;;;;;;;4.43;2.75;;;;;;;14.78;57.33;101966.72;5034472;28;20033;-87
2022/12/06 11:20:28;;;;;;;5.78;2.80;;;;;;;14.86;58.88;101961.44;5035083;28;20035;-87
2022/12/06 11:23:10;;;;;;;5.65;2.80;;;;;;;15.02;58.53;101958.09;5036008;28;20026;-88
2022/12/06 11:25:45;;;;;;;9.70;2.90;;;;;;;14.85;55.70;101943.72;5035951;28;20034;-87
2022/12/06 11:28:20;;;;;;;5.00;2.70;;;;;;;15.12;55.73;101959.09;5035611;28;20029;-87
2022/12/06 11:30:50;;;;;;;4.72;2.75;;;;;;;15.40;54.17;101952.22;5017755;28;20038;-87
2022/12/06 11:33:17;;;;;;;3.67;2.55;;;;;;;15.51;53.24;101953.22;5035518;28;20022;-87
2022/12/06 11:35:45;;;;;;;4.70;2.58;;;;;;;15.48;52.88;101934.53;5035786;28;20145;-87
2022/12/06 11:38:11;;;;;;;7.60;2.60;;;;;;;15.48;51.60;101955.84;5035273;28;20056;-87
2022/12/06 11:40:42;;;;;;;4.78;2.72;;;;;;;15.36;52.94;101939.75;5034988;28;20048;-86
2022/12/06 11:43:16;;;;;;;6.40;2.50;;;;;;;15.39;52.22;101938.03;5017295;28;20115;-87
2022/12/06 11:45:44;;;;;;;4.88;2.60;;;;;;;15.31;52.26;101937.06;5035409;28;20030;-87
2022/12/06 11:48:22;;;;;;;7.30;2.63;;;;;;;15.04;54.66;101943.03;5016842;28;20087;-87
2022/12/06 11:50:49;;;;;;;6.95;3.40;;;;;;;14.97;53.67;101935.84;5035143;28;20033;-87
2022/12/06 11:53:25;;;;;;;4.55;2.80;;;;;;;14.81;54.28;101932.13;5034472;28;20029;-86
2022/12/06 11:55:54;;;;;;;6.47;2.90;;;;;;;14.94;52.08;101934.03;5034319;28;20057;-86
2022/12/06 11:58:45;;;;;;;6.40;2.80;;;;;;;15.09;53.10;101928.00;5017005;28;20041;-86
2022/12/06 12:01:14;;;;;;;5.15;3.25;;;;;;;15.13;51.94;101916.50;5016498;28;20057;-87
2022/12/06 12:03:44;;;;;;;9.75;3.80;;;;;;;15.46;52.98;101901.66;5034657;28;20068;-87
2022/12/06 12:06:20;;;;;;;6.50;2.85;;;;;;;15.58;52.33;101903.53;5034140;28;20037;-87